Time;durP1;ratioP1;P1;durP2;ratioP2;P2;SDS_P1;SDS_P2;PMS_P1;PMS_P2;Temp;Humidity;BMP_temperature;BMP_pressure;BME280_temperature;BME280_humidity;BME280_pressure;Samples;Min_cycle;Max_cycle;Signal;HPM_P1;HPM_P2
2024/01/08 00:02:02;;;;;;;6.50;3.72;;;;;;;;;;5066987;28;20043;-79
2024/01/08 00:04:28;;;;;;;5.18;3.38;;;;;;;;;;5083822;28;20477;-78
2024/01/08 00:06:54;;;;;;;5.57;3.38;;;;;;;;;;5054891;28;20028;-78
2024/01/08 00:09:20;;;;;;;9.15;3.75;;;;;;;;;;5074211;28;20044;-78
2024/01/08 00:11:47;;;;;;;5.45;3.40;;;;;;;;;;5085277;28;20040;-78
2024/01/08 00:14:13;;;;;;;6.25;4.13;;;;;;;;;;5062201;28;20494;-78
2024/01/08 00:16:39;;;;;;;8.20;4.15;;;;;;;;;;5093928;28;20364;-79
2024/01/08 00:19:05;;;;;;;8.10;3.72;;;;;;;;;;5068212;28;20044;-79
2024/01/08 00:21:31;;;;;;;9.23;4.00;;;;;;;;;;5072342;28;20055;-79
2024/01/08 00:23:57;;;;;;;6.05;3.67;;;;;;;;;;5047046;28;20047;-79
2024/01/08 00:26:24;;;;;;;7.18;3.95;;;;;;;;;;5069636;28;20052;-79
2024/01/08 00:28:50;;;;;;;5.60;4.35;;;;;;;;;;5065909;28;20426;-79
2024/01/08 00:31:16;;;;;;;7.18;4.70;;;;;;;;;;5057070;28;20028;-79
2024/01/08 00:33:42;;;;;;;7.28;3.95;;;;;;;;;;5069559;28;20070;-81
2024/01/08 00:36:09;;;;;;;6.63;4.10;;;;;;;;;;5078389;28;20032;-78
2024/01/08 00:38:35;;;;;;;9.93;3.72;;;;;;;;;;5072637;28;20044;-79
2024/01/08 00:41:01;;;;;;;5.45;3.78;;;;;;;;;;5092209;28;20453;-78
2024/01/08 00:43:27;;;;;;;7.53;4.55;;;;;;;;;;5074256;28;20488;-78
2024/01/08 00:45:53;;;;;;;6.88;3.92;;;;;;;;;;5079655;28;20387;-78
2024/01/08 00:48:19;;;;;;;11.52;5.20;;;;;;;;;;5090204;28;20441;-78
2024/01/08 00:50:45;;;;;;;10.18;5.10;;;;;;;;;;5086086;28;20756;-78
2024/01/08 00:53:11;;;;;;;9.60;4.80;;;;;;;;;;5072091;28;20040;-78
2024/01/08 00:55:37;;;;;;;7.82;4.65;;;;;;;;;;5086491;28;20068;-79
2024/01/08 00:58:03;;;;;;;5.82;4.45;;;;;;;;;;5068230;28;20124;-78
2024/01/08 01:00:31;;;;;;;7.85;4.38;;;;;;;;;;5086508;28;20075;-79
2024/01/08 01:02:57;;;;;;;6.85;4.50;;;;;;;;;;5079471;28;20051;-80
2024/01/08 01:05:23;;;;;;;8.73;4.72;;;;;;;;;;5062157;28;20117;-80
2024/01/08 01:07:49;;;;;;;10.68;4.63;;;;;;;;;;5058828;28;20039;-82
2024/01/08 01:10:15;;;;;;;9.63;5.45;;;;;;;;;;5082398;28;20491;-82
2024/01/08 01:12:41;;;;;;;7.90;5.05;;;;;;;;;;5057845;28;20036;-82
2024/01/08 01:15:07;;;;;;;11.05;5.32;;;;;;;;;;5089181;28;20035;-82
2024/01/08 01:17:33;;;;;;;8.18;5.07;;;;;;;;;;5081153;28;20126;-82
2024/01/08 01:19:59;;;;;;;6.82;5.10;;;;;;;;;;5055157;28;20086;-82
2024/01/08 01:22:25;;;;;;;7.63;5.40;;;;;;;;;;5069413;28;20048;-81
2024/01/08 01:24:51;;;;;;;9.32;5.82;;;;;;;;;;5074928;28;20544;-82
2024/01/08 01:27:17;;;;;;;9.77;5.05;;;;;;;;;;5081110;28;20071;-82
2024/01/08 01:29:43;;;;;;;6.82;4.38;;;;;;;;;;5073898;28;20036;-81
2024/01/08 01:32:10;;;;;;;7.47;4.70;;;;;;;;;;5071667;28;21236;-82
2024/01/08 01:34:37;;;;;;;11.50;5.85;;;;;;;;;;5070317;28;20501;-83
2024/01/08 01:37:03;;;;;;;9.75;5.28;;;;;;;;;;5067835;28;20075;-82
2024/01/08 01:39:32;;;;;;;7.25;5.68;;;;;;;;;;5067745;28;20039;-83
2024/01/08 01:41:58;;;;;;;9.80;5.20;;;;;;;;;;5065286;28;20036;-82
2024/01/08 01:44:24;;;;;;;9.25;5.60;;;;;;;;;;5053655;28;20047;-82
2024/01/08 01:46:51;;;;;;;9.50;5.18;;;;;;;;;;5049451;28;20047;-81
2024/01/08 01:49:18;;;;;;;8.27;5.60;;;;;;;;;;5090599;28;20051;-82
2024/01/08 01:51:45;;;;;;;8.63;5.25;;;;;;;;;;5095298;28;20040;-82
2024/01/08 01:54:13;;;;;;;7.70;4.82;;;;;;;;;;5072599;28;20071;-83
2024/01/08 01:56:40;;;;;;;7.57;5.13;;;;;;;;;;5065956;28;20482;-82
2024/01/08 01:59:06;;;;;;;9.63;5.40;;;;;;;;;;5071877;28;20048;-82
2024/01/08 02:01:33;;;;;;;10.52;5.43;;;;;;;;;;5084191;28;20124;-83
2024/01/08 02:04:01;;;;;;;12.57;5.13;;;;;;;;;;5058766;28;20373;-82
2024/01/08 02:06:28;;;;;;;7.90;5.40;;;;;;;;;;5088868;28;20073;-83
2024/01/08 02:08:54;;;;;;;9.02;5.80;;;;;;;;;;5067794;28;20115;-83
2024/01/08 02:11:21;;;;;;;14.73;6.22;;;;;;;;;;5086231;28;20510;-83
2024/01/08 02:13:47;;;;;;;9.85;5.03;;;;;;;;;;5070471;28;20123;-82
2024/01/08 02:16:13;;;;;;;6.20;4.15;;;;;;;;;;5071044;28;20092;-83
2024/01/08 02:18:39;;;;;;;9.25;4.80;;;;;;;;;;5073262;28;20122;-80
2024/01/08 02:21:06;;;;;;;8.85;5.20;;;;;;;;;;5071521;28;20047;-80
2024/01/08 02:23:33;;;;;;;7.25;4.75;;;;;;;;;;5071172;28;20075;-80
2024/01/08 02:25:59;;;;;;;8.57;5.72;;;;;;;;;;5082321;28;20047;-80
2024/01/08 02:28:25;;;;;;;8.35;5.38;;;;;;;;;;5093620;28;20486;-80
2024/01/08 02:30:51;;;;;;;9.45;5.25;;;;;;;;;;5070628;28;20511;-80
2024/01/08 02:33:17;;;;;;;9.25;5.22;;;;;;;;;;5071876;28;20123;-80
2024/01/08 02:35:43;;;;;;;14.50;5.75;;;;;;;;;;5081288;28;20058;-81
2024/01/08 02:38:09;;;;;;;7.15;5.10;;;;;;;;;;5071909;28;20039;-81
2024/01/08 02:40:35;;;;;;;10.05;5.57;;;;;;;;;;5058205;28;20039;-80
2024/01/08 02:43:01;;;;;;;8.23;5.53;;;;;;;;;;5097958;28;20044;-81
2024/01/08 02:45:27;;;;;;;8.43;5.13;;;;;;;;;;5094106;28;20032;-81
2024/01/08 02:47:53;;;;;;;8.30;4.63;;;;;;;;;;5073458;28;20123;-80
2024/01/08 02:50:19;;;;;;;11.10;5.22;;;;;;;;;;5080024;28;20037;-80
2024/01/08 02:52:45;;;;;;;7.78;5.10;;;;;;;;;;5072381;28;20144;-81
2024/01/08 02:55:12;;;;;;;7.28;4.63;;;;;;;;;;5089922;28;20386;-80
2024/01/08 02:57:38;;;;;;;6.43;3.88;;;;;;;;;;5085428;28;20044;-80
2024/01/08 03:00:05;;;;;;;9.38;4.90;;;;;;;;;;5065254;28;20540;-80
2024/01/08 03:02:31;;;;;;;7.32;4.07;;;;;;;;;;5069933;28;20055;-81
2024/01/08 03:04:58;;;;;;;7.80;4.63;;;;;;;;;;5070497;28;20075;-78
2024/01/08 03:07:24;;;;;;;5.65;4.35;;;;;;;;;;5071123;28;20075;-80
2024/01/08 03:09:50;;;;;;;6.80;3.88;;;;;;;;;;5070898;28;20032;-80
2024/01/08 03:12:16;;;;;;;8.15;4.45;;;;;;;;;;5084587;28;20040;-80
2024/01/08 03:14:43;;;;;;;8.05;4.13;;;;;;;;;;5055023;28;20044;-80
2024/01/08 03:17:09;;;;;;;7.15;4.35;;;;;;;;;;5083864;28;20119;-80
2024/01/08 03:19:35;;;;;;;5.82;4.72;;;;;;;;;;5075964;28;20083;-80
2024/01/08 03:22:02;;;;;;;7.22;3.67;;;;;;;;;;5052324;28;20036;-79
2024/01/08 03:24:28;;;;;;;6.45;3.67;;;;;;;;;;5089156;28;20032;-80
2024/01/08 03:26:54;;;;;;;5.63;3.75;;;;;;;;;;5086174;28;20036;-79
2024/01/08 03:29:21;;;;;;;7.85;4.40;;;;;;;;;;5079325;28;20083;-80
2024/01/08 03:31:47;;;;;;;6.53;4.20;;;;;;;;;;5080181;28;20780;-80
2024/01/08 03:34:14;;;;;;;6.40;4.43;;;;;;;;;;5066146;28;20040;-80
2024/01/08 03:36:44;;;;;;;6.97;4.07;;;;;;;;;;5069023;28;20028;-80
2024/01/08 03:39:12;;;;;;;7.18;4.13;;;;;;;;;;5093050;28;20056;-80
2024/01/08 03:41:39;;;;;;;8.40;4.75;;;;;;;;;;5068564;28;20137;-79
2024/01/08 03:44:05;;;;;;;6.47;3.90;;;;;;;;;;5067547;28;20123;-81
2024/01/08 03:46:32;;;;;;;7.93;3.97;;;;;;;;;;5073088;28;20039;-80
2024/01/08 03:48:59;;;;;;;6.47;4.35;;;;;;;;;;5074379;28;20040;-81
2024/01/08 03:51:25;;;;;;;5.97;3.97;;;;;;;;;;5071537;28;20519;-80
2024/01/08 03:53:53;;;;;;;6.88;4.13;;;;;;;;;;5090847;28;20040;-79
2024/01/08 03:56:19;;;;;;;7.38;4.72;;;;;;;;;;5073792;28;20067;-80
2024/01/08 03:58:45;;;;;;;8.85;4.78;;;;;;;;;;5085070;28;20052;-81
2024/01/08 04:01:14;;;;;;;6.43;3.70;;;;;;;;;;5070160;28;20504;-79
2024/01/08 04:03:40;;;;;;;6.13;4.03;;;;;;;;;;5071446;28;20075;-80
2024/01/08 04:06:06;;;;;;;6.95;4.18;;;;;;;;;;5093080;28;20059;-80
2024/01/08 04:08:32;;;;;;;5.97;4.25;;;;;;;;;;5075082;28;20044;-80
2024/01/08 04:10:58;;;;;;;4.82;3.70;;;;;;;;;;5074374;28;20446;-81
2024/01/08 04:13:24;;;;;;;7.05;4.15;;;;;;;;;;5091771;28;20048;-81
2024/01/08 04:15:51;;;;;;;4.60;3.30;;;;;;;;;;5104933;28;20060;-80
2024/01/08 04:18:18;;;;;;;6.35;3.72;;;;;;;;;;5076951;28;20044;-78
2024/01/08 04:20:44;;;;;;;7.50;3.63;;;;;;;;;;5087737;28;20404;-80
2024/01/08 04:23:11;;;;;;;6.05;3.83;;;;;;;;;;5093332;28;20048;-80
2024/01/08 04:25:37;;;;;;;6.03;3.60;;;;;;;;;;5055175;28;20093;-81
2024/01/08 04:28:04;;;;;;;6.78;4.15;;;;;;;;;;5088437;28;20032;-80
2024/01/08 04:30:30;;;;;;;6.85;3.75;;;;;;;;;;5075436;28;20553;-80
2024/01/08 04:32:56;;;;;;;7.43;3.17;;;;;;;;;;5067991;28;20055;-80
2024/01/08 04:35:22;;;;;;;6.03;3.42;;;;;;;;;;5079306;28;20067;-80
2024/01/08 04:37:48;;;;;;;6.25;3.80;;;;;;;;;;5094452;28;20039;-80
2024/01/08 04:40:14;;;;;;;4.88;3.08;;;;;;;;;;5088968;28;20063;-80
2024/01/08 04:42:40;;;;;;;8.25;3.85;;;;;;;;;;5090419;28;20048;-80
2024/01/08 04:45:08;;;;;;;5.72;3.83;;;;;;;;;;5088084;28;20055;-80
2024/01/08 04:47:34;;;;;;;8.50;3.58;;;;;;;;;;5093186;28;20075;-79
2024/01/08 04:50:01;;;;;;;4.55;3.03;;;;;;;;;;5077539;28;20127;-80
2024/01/08 04:52:27;;;;;;;5.60;3.53;;;;;;;;;;5071476;28;20047;-81
2024/01/08 04:54:53;;;;;;;5.60;2.85;;;;;;;;;;5094304;28;20043;-80
2024/01/08 04:57:19;;;;;;;6.18;3.72;;;;;;;;;;5079952;28;20131;-80
2024/01/08 04:59:46;;;;;;;6.50;3.95;;;;;;;;;;5067556;28;20123;-81
2024/01/08 05:02:12;;;;;;;4.68;3.15;;;;;;;;;;5087906;28;20047;-81
2024/01/08 05:04:38;;;;;;;7.65;3.78;;;;;;;;;;5092389;28;20127;-81
2024/01/08 05:07:04;;;;;;;6.63;3.60;;;;;;;;;;5084410;28;20036;-81
2024/01/08 05:09:31;;;;;;;6.47;3.78;;;;;;;;;;5067487;28;20103;-80
2024/01/08 05:11:57;;;;;;;5.47;3.75;;;;;;;;;;5085441;28;20098;-80
2024/01/08 05:14:26;;;;;;;7.57;3.72;;;;;;;;;;5081143;28;20032;-78
2024/01/08 05:16:52;;;;;;;7.03;3.33;;;;;;;;;;5082450;28;20109;-80
2024/01/08 05:19:18;;;;;;;9.35;5.57;;;;;;;;;;5078780;28;20071;-81
2024/01/08 05:21:45;;;;;;;9.70;3.35;;;;;;;;;;5070811;28;20047;-80
2024/01/08 05:24:11;;;;;;;12.82;4.13;;;;;;;;;;5088286;28;20051;-80
2024/01/08 05:26:37;;;;;;;7.63;2.65;;;;;;;;;;5066603;28;20044;-80
2024/01/08 05:29:04;;;;;;;5.30;3.17;;;;;;;;;;5082490;28;20036;-79
2024/01/08 05:31:30;;;;;;;4.65;2.63;;;;;;;;;;5072848;28;20144;-79
2024/01/08 05:33:56;;;;;;;7.60;3.10;;;;;;;;;;5054569;28;20050;-80
2024/01/08 05:36:23;;;;;;;4.45;3.22;;;;;;;;;;5054658;28;20480;-84
2024/01/08 05:38:50;;;;;;;5.60;2.83;;;;;;;;;;5057549;28;20647;-80
2024/01/08 05:41:18;;;;;;;6.22;3.13;;;;;;;;;;5092772;28;20056;-81
2024/01/08 05:43:44;;;;;;;5.82;3.38;;;;;;;;;;5072892;28;20044;-81
2024/01/08 05:46:10;;;;;;;5.65;3.00;;;;;;;;;;5077936;28;20563;-80
2024/01/08 05:48:37;;;;;;;5.95;3.40;;;;;;;;;;5082988;28;20397;-83
2024/01/08 05:51:04;;;;;;;5.35;3.17;;;;;;;;;;5076010;28;20070;-83
2024/01/08 05:53:34;;;;;;;6.15;3.22;;;;;;;;;;5073972;28;20040;-82
2024/01/08 05:56:00;;;;;;;8.15;3.15;;;;;;;;;;5076802;28;20044;-82
2024/01/08 05:58:26;;;;;;;6.93;3.67;;;;;;;;;;5075651;28;20073;-82
2024/01/08 06:00:53;;;;;;;7.65;3.03;;;;;;;;;;5055099;28;20089;-82
2024/01/08 06:03:20;;;;;;;11.02;3.03;;;;;;;;;;5073734;28;20092;-82
2024/01/08 06:05:46;;;;;;;9.68;3.50;;;;;;;;;;5070298;28;20043;-82
2024/01/08 06:08:13;;;;;;;6.07;3.40;;;;;;;;;;5057614;28;20044;-82
2024/01/08 06:10:40;;;;;;;8.75;3.42;;;;;;;;;;5072576;28;20042;-84
2024/01/08 06:13:06;;;;;;;5.55;3.33;;;;;;;;;;5077189;28;20115;-81
2024/01/08 06:15:33;;;;;;;9.68;3.10;;;;;;;;;;5069545;28;20032;-83
2024/01/08 06:17:59;;;;;;;11.20;3.38;;;;;;;;;;5074189;28;20052;-83
2024/01/08 06:20:25;;;;;;;6.85;3.17;;;;;;;;;;5075438;28;20036;-83
2024/01/08 06:22:51;;;;;;;11.77;3.63;;;;;;;;;;5075564;28;20064;-83
2024/01/08 06:25:18;;;;;;;5.30;2.85;;;;;;;;;;5081018;28;20107;-82
2024/01/08 06:27:44;;;;;;;11.35;3.33;;;;;;;;;;5058692;28;20044;-82
2024/01/08 06:30:10;;;;;;;5.03;2.65;;;;;;;;;;5070012;28;20127;-83
2024/01/08 06:32:36;;;;;;;6.95;3.13;;;;;;;;;;5092450;28;20032;-84
2024/01/08 06:35:02;;;;;;;8.45;3.28;;;;;;;;;;5071431;28;20482;-82
2024/01/08 06:37:29;;;;;;;9.55;3.28;;;;;;;;;;5070833;28;20046;-82
2024/01/08 06:39:55;;;;;;;6.32;3.13;;;;;;;;;;5083674;28;20158;-82
2024/01/08 06:42:21;;;;;;;8.75;3.15;;;;;;;;;;5071093;28;20040;-83
2024/01/08 06:44:47;;;;;;;9.38;3.33;;;;;;;;;;5072798;28;20061;-81
2024/01/08 06:47:13;;;;;;;7.22;3.35;;;;;;;;;;5072696;28;20039;-82
2024/01/08 06:49:40;;;;;;;6.32;3.42;;;;;;;;;;5074317;28;20040;-83
2024/01/08 06:52:10;;;;;;;10.43;3.78;;;;;;;;;;5073614;28;20044;-81
2024/01/08 06:54:37;;;;;;;10.88;4.10;;;;;;;;;;5095948;28;20085;-83
2024/01/08 06:57:04;;;;;;;8.10;3.60;;;;;;;;;;5074278;28;20395;-82
2024/01/08 06:59:30;;;;;;;5.95;3.38;;;;;;;;;;5073436;28;20060;-81
2024/01/08 07:01:56;;;;;;;7.47;3.10;;;;;;;;;;5052370;28;20050;-80
2024/01/08 07:04:22;;;;;;;6.53;3.78;;;;;;;;;;5083977;28;20039;-78
2024/01/08 07:06:49;;;;;;;11.90;4.00;;;;;;;;;;5087331;28;20510;-80
2024/01/08 07:09:15;;;;;;;8.05;3.72;;;;;;;;;;5072163;28;20040;-79
2024/01/08 07:11:41;;;;;;;10.50;3.90;;;;;;;;;;5074000;28;20051;-79
2024/01/08 07:14:07;;;;;;;7.28;3.83;;;;;;;;;;5085561;28;20039;-79
2024/01/08 07:16:33;;;;;;;8.88;3.63;;;;;;;;;;5069112;28;20027;-79
2024/01/08 07:18:59;;;;;;;7.32;3.50;;;;;;;;;;5083266;28;20040;-79
2024/01/08 07:21:27;;;;;;;6.65;3.55;;;;;;;;;;5084024;28;20131;-79
2024/01/08 07:23:54;;;;;;;8.38;3.80;;;;;;;;;;5090014;28;20039;-80
2024/01/08 07:26:20;;;;;;;9.40;3.72;;;;;;;;;;5082555;28;20087;-79
2024/01/08 07:28:47;;;;;;;8.13;3.92;;;;;;;;;;5063260;28;20523;-80
2024/01/08 07:31:15;;;;;;;6.85;3.72;;;;;;;;;;5068190;28;20115;-81
2024/01/08 07:33:41;;;;;;;15.27;3.25;;;;;;;;;;5090731;28;20048;-79
2024/01/08 07:36:08;;;;;;;10.00;3.75;;;;;;;;;;5099880;28;20116;-79
2024/01/08 07:38:34;;;;;;;6.93;3.22;;;;;;;;;;5091036;28;20040;-80
2024/01/08 07:41:00;;;;;;;6.70;3.47;;;;;;;;;;5091104;28;20039;-78
2024/01/08 07:43:27;;;;;;;10.25;3.65;;;;;;;;;;5074227;28;20742;-85
2024/01/08 07:45:53;;;;;;;7.30;3.45;;;;;;;;;;5100073;28;20036;-87
2024/01/08 07:48:20;;;;;;;6.85;3.20;;;;;;;;;;5092738;28;20048;-87
2024/01/08 07:50:46;;;;;;;5.75;2.72;;;;;;;;;;5063873;28;20549;-88
2024/01/08 07:53:12;;;;;;;10.70;3.42;;;;;;;;;;5073475;28;20127;-87
2024/01/08 07:55:38;;;;;;;7.65;3.83;;;;;;;;;;5091388;28;20031;-88
2024/01/08 07:58:05;;;;;;;11.50;3.38;;;;;;;;;;5064381;28;20406;-89
2024/01/08 08:00:34;;;;;;;6.78;2.90;;;;;;;;;;5078091;28;20044;-90
2024/01/08 08:03:00;;;;;;;6.03;2.90;;;;;;;;;;5075013;28;20044;-86
2024/01/08 08:05:26;;;;;;;6.03;2.95;;;;;;;;;;5072417;28;20035;-86
2024/01/08 08:07:52;;;;;;;8.57;3.60;;;;;;;;;;5080332;28;20052;-90
2024/01/08 08:10:18;;;;;;;6.40;3.33;;;;;;;;;;5074314;28;20046;-89
2024/01/08 08:12:44;;;;;;;8.68;3.20;;;;;;;;;;5094659;28;20028;-88
2024/01/08 08:15:11;;;;;;;8.07;2.67;;;;;;;;;;5096807;28;20415;-89
2024/01/08 08:17:40;;;;;;;5.85;2.60;;;;;;;;;;5076838;28;20065;-89
2024/01/08 08:20:07;;;;;;;7.40;2.92;;;;;;;;;;5076545;28;20058;-87
2024/01/08 08:22:33;;;;;;;6.88;2.60;;;;;;;;;;5075308;28;20075;-89
2024/01/08 08:24:59;;;;;;;9.05;3.38;;;;;;;;;;5078587;28;20035;-87
2024/01/08 08:27:25;;;;;;;4.43;1.83;;;;;;;;;;5065244;28;20052;-89
2024/01/08 08:29:51;;;;;;;4.95;2.47;;;;;;;;;;5087498;28;20035;-86
2024/01/08 08:32:17;;;;;;;6.03;2.67;;;;;;;;;;5102344;28;20147;-90
2024/01/08 08:34:43;;;;;;;9.73;2.65;;;;;;;;;;5086818;28;20032;-87
2024/01/08 08:37:09;;;;;;;7.32;2.65;;;;;;;;;;5095286;28;20043;-85
2024/01/08 08:39:36;;;;;;;7.28;2.40;;;;;;;;;;5070488;28;20043;-87
2024/01/08 08:42:03;;;;;;;4.60;2.50;;;;;;;;;;5086585;28;20039;-89
2024/01/08 08:44:29;;;;;;;6.32;2.67;;;;;;;;;;5081968;28;20036;-86
2024/01/08 08:46:55;;;;;;;8.68;2.42;;;;;;;;;;5105284;28;20035;-89
2024/01/08 08:49:22;;;;;;;5.57;2.28;;;;;;;;;;5093306;28;20020;-89
2024/01/08 08:51:48;;;;;;;7.32;3.10;;;;;;;;;;5095523;28;20046;-89
2024/01/08 08:54:14;;;;;;;4.35;2.40;;;;;;;;;;5075448;28;20515;-88
2024/01/08 08:56:40;;;;;;;5.18;2.50;;;;;;;;;;5094976;28;20035;-88
2024/01/08 08:59:06;;;;;;;5.25;2.78;;;;;;;;;;5070493;28;20091;-89
2024/01/08 09:01:34;;;;;;;7.78;2.80;;;;;;;;;;5080889;28;20039;-89
2024/01/08 09:04:00;;;;;;;7.80;2.90;;;;;;;;;;5078690;28;20044;-89
2024/01/08 09:06:30;;;;;;;8.25;2.90;;;;;;;;;;5075923;28;20048;-88
2024/01/08 09:08:59;;;;;;;6.13;2.65;;;;;;;;;;5077780;28;20047;-89
2024/01/08 09:11:26;;;;;;;4.93;2.80;;;;;;;;;;5071979;28;20067;-89
2024/01/08 09:13:53;;;;;;;5.72;3.05;;;;;;;;;;5097546;28;20036;-84
2024/01/08 09:16:20;;;;;;;7.50;3.13;;;;;;;;;;5075738;28;20032;-87
2024/01/08 09:18:46;;;;;;;4.30;2.60;;;;;;;;;;5098123;28;20097;-87
2024/01/08 09:21:13;;;;;;;7.20;3.42;;;;;;;;;;5096445;28;20483;-86
2024/01/08 09:23:43;;;;;;;7.85;2.75;;;;;;;;;;5076742;28;20058;-86
2024/01/08 09:26:10;;;;;;;5.90;3.20;;;;;;;;;;5077088;28;20097;-89
2024/01/08 09:28:37;;;;;;;5.35;2.90;;;;;;;;;;5075483;28;20069;-85
2024/01/08 09:31:03;;;;;;;8.85;3.10;;;;;;;;;;5068581;28;20808;-88
2024/01/08 09:33:30;;;;;;;6.38;2.88;;;;;;;;;;5076739;28;20032;-87
2024/01/08 09:35:56;;;;;;;6.40;3.03;;;;;;;;;;5074861;28;20044;-86
2024/01/08 09:38:22;;;;;;;10.38;3.50;;;;;;;;;;5076637;28;20057;-87
2024/01/08 09:40:49;;;;;;;6.53;3.22;;;;;;;;;;5062912;28;20120;-86
2024/01/08 09:43:15;;;;;;;9.95;2.92;;;;;;;;;;5083889;28;20517;-87
2024/01/08 09:46:02;;;;;;;21.35;2.85;;;;;;;;;;5089299;28;20081;-88
2024/01/08 09:48:28;;;;;;;4.32;2.90;;;;;;;;;;5084529;28;20048;-85
2024/01/08 09:50:55;;;;;;;5.53;2.78;;;;;;;;;;5095369;28;20047;-86
2024/01/08 09:53:21;;;;;;;7.15;2.97;;;;;;;;;;5080352;28;20048;-87
2024/01/08 09:55:47;;;;;;;4.55;2.88;;;;;;;;;;5073363;28;20139;-87
2024/01/08 09:58:14;;;;;;;8.27;3.13;;;;;;;;;;5088725;28;20060;-87
2024/01/08 10:00:43;;;;;;;5.10;2.90;;;;;;;;;;5076748;28;20533;-88
2024/01/08 10:03:09;;;;;;;4.38;2.70;;;;;;;;;;5073097;28;20067;-88
2024/01/08 10:05:36;;;;;;;5.90;2.55;;;;;;;;;;5076933;28;20042;-77
2024/01/08 10:08:02;;;;;;;4.28;2.17;;;;;;;;;;5093279;28;20067;-77
2024/01/08 10:10:29;;;;;;;7.55;2.75;;;;;;;;;;5077146;28;20040;-77
2024/01/08 10:12:55;;;;;;;3.58;2.22;;;;;;;;;;5084794;28;20079;-78
2024/01/08 10:15:22;;;;;;;4.15;2.45;;;;;;;;;;5069006;28;20071;-77
2024/01/08 10:17:48;;;;;;;4.35;2.13;;;;;;;;;;5081878;28;20097;-77
2024/01/08 10:20:16;;;;;;;5.82;2.42;;;;;;;;;;5073386;28;20088;-77
2024/01/08 10:22:44;;;;;;;5.90;2.90;;;;;;;;;;5088809;28;20054;-76
2024/01/08 10:25:10;;;;;;;7.50;2.55;;;;;;;;;;5056650;28;20048;-77
2024/01/08 10:27:36;;;;;;;3.80;2.35;;;;;;;;;;5056972;28;20097;-77
2024/01/08 10:30:03;;;;;;;3.10;1.70;;;;;;;;;;5070511;28;20036;-77
2024/01/08 10:32:29;;;;;;;3.83;2.45;;;;;;;;;;5053082;28;20036;-77
2024/01/08 10:34:56;;;;;;;4.32;2.50;;;;;;;;;;5062575;28;20242;-77
2024/01/08 10:37:22;;;;;;;3.80;2.17;;;;;;;;;;5080382;28;20072;-76
2024/01/08 10:39:49;;;;;;;3.45;2.22;;;;;;;;;;5065098;28;20492;-76
2024/01/08 10:42:15;;;;;;;3.30;2.28;;;;;;;;;;5055640;28;20065;-76
2024/01/08 10:44:41;;;;;;;6.30;3.17;;;;;;;;;;5082413;28;20055;-76
2024/01/08 10:47:10;;;;;;;4.55;2.65;;;;;;;;;;5072658;28;20053;-77
2024/01/08 10:49:37;;;;;;;5.57;2.58;;;;;;;;;;5072365;28;20496;-76
2024/01/08 10:52:09;;;;;;;6.10;2.50;;;;;;;;;;5081597;28;20510;-75
2024/01/08 10:54:45;;;;;;;5.00;2.90;;;;;;;;;;5091569;28;20035;-76
2024/01/08 10:57:13;;;;;;;5.20;2.63;;;;;;;;;;5079928;28;20044;-76
2024/01/08 10:59:40;;;;;;;5.45;2.72;;;;;;;;;;5094712;28;20173;-77
2024/01/08 11:02:06;;;;;;;5.88;2.78;;;;;;;;;;5090596;28;20067;-76
2024/01/08 11:04:32;;;;;;;6.60;2.97;;;;;;;;;;5082760;28;20039;-76
2024/01/08 11:07:00;;;;;;;3.47;2.45;;;;;;;;;;5064386;28;20035;-79
2024/01/08 11:09:31;;;;;;;4.13;2.58;;;;;;;;;;5052465;28;20040;-78
2024/01/08 11:11:57;;;;;;;5.47;2.58;;;;;;;;;;5077813;28;20132;-77
2024/01/08 11:14:27;;;;;;;4.28;2.83;;;;;;;;;;5087635;28;20484;-77
2024/01/08 11:16:53;;;;;;;8.77;2.80;;;;;;;;;;5073537;28;20068;-77
2024/01/08 11:19:19;;;;;;;4.30;2.50;;;;;;;;;;5097753;28;20732;-78
2024/01/08 11:21:48;;;;;;;4.95;2.70;;;;;;;;;;5088363;28;20046;-76
2024/01/08 11:24:14;;;;;;;6.00;2.80;;;;;;;;;;5067273;28;20102;-76
2024/01/08 11:26:44;;;;;;;4.15;2.60;;;;;;;;;;5090758;28;20035;-77
2024/01/08 11:29:11;;;;;;;4.18;2.72;;;;;;;;;;5071223;28;20044;-77
2024/01/08 11:31:43;;;;;;;4.93;2.65;;;;;;;;;;5079177;28;20109;-77
2024/01/08 11:34:21;;;;;;;2.83;2.28;;;;;;;;;;5062126;28;20039;-77
2024/01/08 11:36:48;;;;;;;4.40;2.33;;;;;;;;;;5063544;28;20143;-77
2024/01/08 11:39:20;;;;;;;3.40;2.20;;;;;;;;;;5083293;28;20604;-77
2024/01/08 11:41:47;;;;;;;6.10;2.58;;;;;;;;;;5087870;28;20407;-76
2024/01/08 11:44:14;;;;;;;8.43;2.47;;;;;;;;;;5085153;28;20059;-76
2024/01/08 11:46:44;;;;;;;3.63;2.22;;;;;;;;;;5073423;28;20128;-77
2024/01/08 11:49:10;;;;;;;4.32;2.50;;;;;;;;;;5067747;28;20414;-77
2024/01/08 11:51:41;;;;;;;3.17;2.33;;;;;;;;;;5080241;28;20032;-77
2024/01/08 11:54:07;;;;;;;6.50;2.20;;;;;;;;;;5086045;28;20520;-77
2024/01/08 11:56:33;;;;;;;4.68;2.67;;;;;;;;;;5082397;28;20078;-77
2024/01/08 11:58:59;;;;;;;5.70;3.00;;;;;;;;;;5089787;28;20151;-77
2024/01/08 12:01:26;;;;;;;4.40;2.53;;;;;;;;;;5053142;28;20035;-77
2024/01/08 12:03:58;;;;;;;5.05;2.70;;;;;;;;;;5068578;28;20074;-78
2024/01/08 12:06:24;;;;;;;3.83;2.55;;;;;;;;;;5073531;28;20067;-76
2024/01/08 12:08:53;;;;;;;5.22;2.67;;;;;;;;;;5090814;28;20083;-77
2024/01/08 12:11:20;;;;;;;5.38;2.65;;;;;;;;;;5087237;28;20040;-77
2024/01/08 12:13:46;;;;;;;4.47;2.60;;;;;;;;;;5071217;28;20028;-76
2024/01/08 12:16:13;;;;;;;5.18;2.38;;;;;;;;;;5072733;28;20071;-77
2024/01/08 12:18:41;;;;;;;7.15;2.83;;;;;;;;;;5085022;28;20048;-77
2024/01/08 12:21:07;;;;;;;5.22;2.47;;;;;;;;;;5070878;28;20122;-77
2024/01/08 12:23:33;;;;;;;3.28;2.33;;;;;;;;;;5096433;28;20035;-77
2024/01/08 12:25:59;;;;;;;5.25;2.63;;;;;;;;;;5072368;28;20037;-77
2024/01/08 12:28:29;;;;;;;3.70;2.35;;;;;;;;;;5063098;28;20076;-78
2024/01/08 12:30:55;;;;;;;5.78;3.00;;;;;;;;;;5058845;28;20050;-77
2024/01/08 12:33:21;;;;;;;3.92;2.45;;;;;;;;;;5078552;28;20544;-78
2024/01/08 12:35:52;;;;;;;6.80;2.90;;;;;;;;;;5082796;28;20028;-77
2024/01/08 12:38:19;;;;;;;6.95;2.63;;;;;;;;;;5083155;28;20032;-78
2024/01/08 12:40:45;;;;;;;3.80;2.40;;;;;;;;;;5063662;28;20102;-77
2024/01/08 12:43:11;;;;;;;5.60;2.53;;;;;;;;;;5076169;28;20498;-78
2024/01/08 12:45:44;;;;;;;4.57;2.35;;;;;;;;;;5071626;28;20040;-77
2024/01/08 12:48:11;;;;;;;4.35;2.60;;;;;;;;;;5082402;28;20043;-77
2024/01/08 12:50:38;;;;;;;4.90;2.63;;;;;;;;;;5076496;28;20506;-78
2024/01/08 12:53:04;;;;;;;5.03;2.95;;;;;;;;;;5066954;28;20031;-77
2024/01/08 12:55:30;;;;;;;3.90;2.70;;;;;;;;;;5093397;28;20484;-78
2024/01/08 12:57:58;;;;;;;6.70;2.80;;;;;;;;;;5090503;28;20040;-78
2024/01/08 13:00:28;;;;;;;5.55;2.45;;;;;;;;;;5090668;28;20036;-78
2024/01/08 13:02:55;;;;;;;9.23;3.83;;;;;;;;;;5090630;28;20044;-78
2024/01/08 13:05:21;;;;;;;6.20;2.45;;;;;;;;;;5089708;28;20456;-77
2024/01/08 13:07:47;;;;;;;7.65;4.25;;;;;;;;;;5075458;28;20039;-78
2024/01/08 13:10:13;;;;;;;4.78;2.60;;;;;;;;;;5097379;28;20092;-76
2024/01/08 13:12:40;;;;;;;5.05;3.38;;;;;;;;;;5068986;28;20040;-77
2024/01/08 13:15:08;;;;;;;8.38;3.35;;;;;;;;;;5072662;28;20066;-77
2024/01/08 13:17:35;;;;;;;6.47;2.70;;;;;;;;;;5054510;28;20601;-76
2024/01/08 13:20:01;;;;;;;7.13;3.33;;;;;;;;;;5084806;28;20047;-77
2024/01/08 13:22:27;;;;;;;7.47;3.08;;;;;;;;;;5091460;28;20039;-77
2024/01/08 13:24:59;;;;;;;4.28;2.85;;;;;;;;;;5074977;28;20036;-77
2024/01/08 13:27:25;;;;;;;4.20;2.67;;;;;;;;;;5078586;28;20193;-78
2024/01/08 13:29:52;;;;;;;5.60;2.85;;;;;;;;;;5098172;28;20196;-77
2024/01/08 13:32:19;;;;;;;6.07;2.92;;;;;;;;;;5095313;28;20044;-77
2024/01/08 13:34:47;;;;;;;6.68;3.00;;;;;;;;;;5067975;28;20039;-78
2024/01/08 13:37:14;;;;;;;4.70;2.95;;;;;;;;;;5071304;28;20068;-77
2024/01/08 13:39:40;;;;;;;4.30;2.35;;;;;;;;;;5065905;28;21196;-77
2024/01/08 13:42:06;;;;;;;5.18;2.97;;;;;;;;;;5084665;28;20036;-77
2024/01/08 13:44:32;;;;;;;6.45;3.30;;;;;;;;;;5093130;28;20126;-78
2024/01/08 13:46:59;;;;;;;4.45;3.17;;;;;;;;;;5082278;28;20082;-77
2024/01/08 13:49:26;;;;;;;4.32;2.88;;;;;;;;;;5095384;28;20423;-77
2024/01/08 13:51:52;;;;;;;9.27;3.22;;;;;;;;;;5067672;28;20036;-77
2024/01/08 13:54:18;;;;;;;4.95;2.90;;;;;;;;;;5088039;28;20041;-78
2024/01/08 13:56:44;;;;;;;8.00;2.80;;;;;;;;;;5084450;28;20407;-77
2024/01/08 13:59:10;;;;;;;5.55;3.08;;;;;;;;;;5055014;28;20083;-77
2024/01/08 14:01:37;;;;;;;5.45;2.83;;;;;;;;;;5085302;28;20395;-75
2024/01/08 14:04:03;;;;;;;5.97;3.38;;;;;;;;;;5087869;28;20044;-74
2024/01/08 14:06:29;;;;;;;5.90;2.65;;;;;;;;;;5071598;28;20119;-74
2024/01/08 14:08:56;;;;;;;7.25;3.33;;;;;;;;;;5091213;28;20399;-74
2024/01/08 14:11:23;;;;;;;6.85;3.53;;;;;;;;;;5077061;28;20028;-74
2024/01/08 14:13:49;;;;;;;7.97;3.30;;;;;;;;;;5074020;28;20033;-74
2024/01/08 14:16:16;;;;;;;5.70;3.03;;;;;;;;;;5060691;28;20075;-74
2024/01/08 14:18:44;;;;;;;8.00;2.92;;;;;;;;;;5089599;28;20193;-73
2024/01/08 14:21:10;;;;;;;4.45;2.83;;;;;;;;;;5080889;28;20060;-75
2024/01/08 14:23:36;;;;;;;6.18;3.50;;;;;;;;;;5074261;28;20067;-75
2024/01/08 14:26:03;;;;;;;8.60;3.30;;;;;;;;;;5087354;28;20370;-75
2024/01/08 14:28:29;;;;;;;5.68;3.22;;;;;;;;;;5069012;28;20479;-75
2024/01/08 14:30:56;;;;;;;5.50;3.00;;;;;;;;;;5063162;28;20032;-76
2024/01/08 14:33:22;;;;;;;4.82;2.75;;;;;;;;;;5053940;28;20044;-74
2024/01/08 14:35:48;;;;;;;5.72;3.20;;;;;;;;;;5082999;28;20035;-75
2024/01/08 14:38:14;;;;;;;6.40;3.00;;;;;;;;;;5083500;28;20037;-74
2024/01/08 14:40:43;;;;;;;9.52;2.90;;;;;;;;;;5084329;28;20126;-74